createdAt,value
2019-02-16T00:01:01.671Z,68.47
2019-02-16T00:03:29.161Z,68.68
2019-02-16T00:05:56.545Z,69.34
2019-02-16T00:08:24.039Z,69.45
2019-02-16T00:10:51.405Z,70.33
2019-02-16T00:13:18.925Z,69.45
2019-02-16T00:15:46.375Z,68.62
2019-02-16T00:18:13.865Z,68.04
2019-02-16T00:20:41.230Z,68.60
2019-02-16T00:23:13.065Z,69.07
2019-02-16T00:25:43.349Z,69.30
2019-02-16T00:28:13.669Z,69.61
2019-02-16T00:30:41.056Z,69.69
2019-02-16T00:33:08.575Z,69.68
2019-02-16T00:35:35.966Z,69.49
2019-02-16T00:38:05.030Z,69.22
2019-02-16T00:40:35.681Z,69.11
2019-02-16T00:43:03.131Z,69.36
2019-02-16T00:45:30.530Z,69.79
2019-02-16T00:47:57.958Z,69.93
2019-02-16T00:50:25.578Z,70.34
2019-02-16T00:52:53.019Z,70.57
2019-02-16T00:55:20.440Z,70.32
2019-02-16T00:57:48.064Z,71.98
2019-02-16T01:00:15.609Z,70.85
2019-02-16T01:02:42.975Z,70.25
2019-02-16T01:05:10.516Z,69.79
2019-02-16T01:07:37.975Z,69.26
2019-02-16T01:10:06.373Z,69.43
2019-02-16T01:12:33.750Z,69.86
2019-02-16T01:15:01.190Z,69.80
2019-02-16T01:17:28.745Z,69.21
2019-02-16T01:19:56.680Z,70.30
2019-02-16T01:22:24.075Z,71.61
2019-02-16T01:24:51.490Z,72.03
2019-02-16T01:27:18.850Z,71.93
2019-02-16T01:29:46.315Z,71.48
2019-02-16T01:32:13.942Z,71.29
2019-02-16T01:34:41.435Z,71.71
2019-02-16T01:37:09.004Z,71.73
2019-02-16T01:39:38.315Z,72.27
2019-02-16T01:42:05.715Z,73.10
2019-02-16T01:44:33.168Z,73.41
2019-02-16T01:47:00.552Z,72.96
2019-02-16T01:49:27.985Z,72.07
2019-02-16T01:51:55.374Z,71.94
2019-02-16T01:54:22.811Z,71.00
2019-02-16T01:56:50.190Z,70.57
2019-02-16T01:59:17.650Z,71.16
2019-02-16T02:01:45.041Z,72.75
2019-02-16T02:04:12.527Z,73.76
2019-02-16T02:06:39.916Z,72.96
2019-02-16T02:09:07.319Z,73.42
2019-02-16T02:11:34.779Z,73.25
2019-02-16T02:14:02.151Z,73.48
2019-02-16T02:16:29.661Z,73.06
2019-02-16T02:18:57.100Z,73.36
2019-02-16T02:21:24.535Z,74.38
2019-02-16T02:23:51.923Z,74.20
2019-02-16T02:26:19.370Z,75.15
2019-02-16T02:28:46.778Z,75.34
2019-02-16T02:31:14.250Z,75.95
2019-02-16T02:33:41.633Z,76.16
2019-02-16T02:36:09.100Z,75.86
2019-02-16T02:38:36.475Z,75.70
2019-02-16T02:41:03.925Z,75.13
2019-02-16T02:43:31.347Z,74.53
2019-02-16T02:45:58.776Z,74.34
2019-02-16T02:48:26.160Z,74.43
2019-02-16T02:50:53.575Z,75.22
2019-02-16T02:53:30.700Z,75.23
2019-02-16T02:55:50.415Z,75.64
2019-02-16T02:58:17.821Z,76.30
2019-02-16T03:00:45.345Z,77.00
2019-02-16T03:03:12.815Z,76.86
2019-02-16T03:05:40.262Z,76.86
2019-02-16T03:08:07.661Z,76.76
2019-02-16T03:10:35.089Z,77.13
2019-02-16T03:13:02.476Z,77.36
2019-02-16T03:15:29.921Z,78.29
2019-02-16T03:17:57.383Z,78.29
2019-02-16T03:20:24.825Z,78.30
2019-02-16T03:23:11.386Z,79.05
2019-02-16T03:25:38.850Z,79.05
2019-02-16T03:28:57.775Z,78.72
2019-02-16T03:32:09.147Z,79.18
2019-02-16T03:34:55.960Z,79.53
2019-02-16T03:37:46.973Z,79.94
2019-02-16T03:40:16.199Z,80.24
2019-02-16T03:42:43.650Z,79.75
2019-02-16T03:45:11.310Z,79.84
2019-02-16T03:47:38.770Z,79.58
2019-02-16T03:50:06.617Z,79.83
2019-02-16T03:52:34.104Z,80.42
2019-02-16T03:55:01.604Z,80.35
2019-02-16T03:57:29.110Z,80.46
2019-02-16T03:59:56.505Z,80.33
2019-02-16T04:02:23.941Z,79.90
2019-02-16T04:04:54.031Z,79.59
2019-02-16T04:07:21.474Z,78.82
2019-02-16T04:09:48.839Z,79.27
2019-02-16T04:12:16.306Z,80.01
2019-02-16T04:14:43.672Z,80.16
2019-02-16T04:17:11.157Z,80.56
2019-02-16T04:19:41.300Z,80.67
2019-02-16T04:22:08.746Z,80.72
2019-02-16T04:24:36.146Z,80.97
2019-02-16T04:27:03.608Z,81.44
2019-02-16T04:29:30.988Z,80.69
2019-02-16T04:31:58.476Z,81.10
2019-02-16T04:34:25.865Z,80.96
2019-02-16T04:36:55.576Z,80.94
2019-02-16T04:39:25.510Z,80.63
2019-02-16T04:41:52.976Z,80.12
2019-02-16T04:44:20.469Z,79.65
2019-02-16T04:46:47.878Z,79.76
2019-02-16T04:49:28.482Z,79.58
2019-02-16T04:52:00.520Z,80.44
2019-02-16T04:54:32.799Z,80.79
2019-02-16T04:57:18.652Z,80.81
2019-02-16T04:59:50.744Z,80.41
2019-02-16T05:02:19.940Z,79.77
2019-02-16T05:04:52.822Z,78.29
2019-02-16T05:07:28.160Z,78.30
2019-02-16T05:09:57.644Z,78.44
2019-02-16T05:12:30.062Z,74.79
2019-02-16T05:14:57.410Z,76.42
2019-02-16T05:17:24.915Z,76.01
2019-02-16T05:19:52.339Z,71.01
2019-02-16T05:22:19.782Z,72.08
2019-02-16T05:24:47.179Z,68.49
2019-02-16T05:27:14.691Z,66.80
2019-02-16T05:29:42.108Z,65.81
2019-02-16T05:32:09.594Z,63.85
2019-02-16T05:34:37.017Z,63.34
2019-02-16T05:37:04.464Z,62.77
2019-02-16T05:39:31.920Z,60.99
2019-02-16T05:41:59.315Z,59.30
2019-02-16T05:44:26.761Z,59.67
2019-02-16T05:46:54.652Z,59.85
2019-02-16T05:49:22.200Z,58.56
2019-02-16T05:51:49.682Z,58.48
2019-02-16T05:54:17.245Z,57.58
2019-02-16T05:56:44.631Z,58.22
2019-02-16T05:59:12.026Z,57.86
2019-02-16T06:01:39.420Z,57.12
2019-02-16T06:04:06.866Z,56.11
2019-02-16T06:06:34.661Z,56.05
2019-02-16T06:09:02.307Z,55.74
2019-02-16T06:11:29.730Z,55.66
2019-02-16T06:13:57.222Z,55.66
2019-02-16T06:16:24.655Z,54.96
2019-02-16T06:18:52.158Z,55.18
2019-02-16T06:21:19.571Z,54.67
2019-02-16T06:23:46.995Z,55.04
2019-02-16T06:26:14.385Z,54.13
2019-02-16T06:28:41.870Z,53.39
2019-02-16T06:31:09.229Z,52.83
2019-02-16T06:33:37.162Z,53.46
2019-02-16T06:36:24.050Z,53.35
2019-02-16T06:38:51.698Z,53.64
2019-02-16T06:41:19.395Z,53.19
2019-02-16T06:43:46.843Z,52.55
2019-02-16T06:46:20.416Z,51.65
2019-02-16T06:48:50.910Z,51.35
2019-02-16T06:51:18.340Z,51.01
2019-02-16T06:53:45.798Z,50.09
2019-02-16T06:56:44.988Z,49.52
2019-02-16T06:59:12.455Z,48.92
2019-02-16T07:01:39.830Z,47.21
2019-02-16T07:04:07.265Z,46.18
2019-02-16T07:06:34.726Z,45.52
2019-02-16T07:09:02.407Z,45.12
2019-02-16T07:11:31.945Z,44.47
2019-02-16T07:13:59.486Z,44.39
2019-02-16T07:16:49.225Z,44.32
2019-02-16T07:19:28.745Z,44.43
2019-02-16T07:21:56.238Z,44.34
2019-02-16T07:27:03.645Z,43.06
2019-02-16T07:29:58.374Z,42.62
2019-02-16T07:32:33.520Z,42.08
2019-02-16T07:35:17.012Z,41.56
2019-02-16T07:37:50.693Z,41.05
2019-02-16T07:46:10.343Z,40.19
2019-02-16T07:52:36.560Z,39.75
2019-02-16T07:55:15.819Z,38.74
2019-02-16T07:58:19.420Z,38.04
2019-02-16T08:01:08.045Z,37.71
2019-02-16T08:04:26.345Z,38.07
2019-02-16T08:07:46.359Z,38.03
2019-02-16T08:10:29.750Z,38.09
2019-02-16T08:13:14.415Z,38.42
2019-02-16T08:16:09.994Z,37.82
2019-02-16T08:18:57.343Z,37.70
2019-02-16T08:22:11.315Z,38.03
2019-02-16T08:24:56.670Z,37.67
2019-02-16T08:27:41.097Z,40.86
2019-02-16T08:30:33.886Z,39.73
2019-02-16T08:33:35.916Z,40.70
2019-02-16T08:36:09.895Z,40.06
2019-02-16T08:38:55.320Z,39.85
2019-02-16T08:42:01.184Z,39.77
2019-02-16T08:44:53.946Z,39.92
2019-02-16T08:47:48.151Z,40.37
2019-02-16T08:50:29.936Z,41.22
2019-02-16T08:53:06.932Z,40.56
2019-02-16T08:56:00.955Z,42.33
2019-02-16T08:58:56.515Z,41.39
2019-02-16T09:02:01.208Z,42.00
2019-02-16T09:04:49.959Z,42.37
2019-02-16T09:07:42.800Z,41.52
2019-02-16T09:10:44.572Z,40.85
2019-02-16T09:13:34.279Z,40.83
2019-02-16T09:16:09.990Z,40.89
2019-02-16T09:18:50.165Z,41.96
2019-02-16T09:21:31.912Z,40.61
2019-02-16T09:24:18.860Z,41.53
2019-02-16T09:27:05.905Z,40.98
2019-02-16T09:29:51.055Z,40.92
2019-02-16T09:32:47.529Z,40.41
2019-02-16T09:35:27.030Z,41.20
2019-02-16T09:42:04.131Z,41.23
2019-02-16T09:44:47.051Z,41.69
2019-02-16T09:47:34.570Z,40.71
2019-02-16T09:50:13.922Z,41.19
2019-02-16T09:52:53.930Z,41.80
2019-02-16T09:55:37.645Z,40.84
2019-02-16T09:58:36.745Z,41.38
2019-02-16T10:01:26.232Z,40.89
2019-02-16T10:04:31.637Z,42.15
2019-02-16T10:07:30.334Z,41.63
2019-02-16T10:10:10.414Z,42.38
2019-02-16T10:13:06.086Z,41.98
2019-02-16T10:15:54.164Z,42.41
2019-02-16T10:19:06.636Z,42.09
2019-02-16T10:21:59.864Z,41.65
2019-02-16T10:25:16.515Z,40.66
2019-02-16T10:28:32.809Z,41.61
2019-02-16T10:31:57.101Z,42.75
2019-02-16T10:38:24.219Z,42.84
2019-02-16T10:41:10.343Z,40.98
2019-02-16T10:44:01.913Z,42.11
2019-02-16T10:47:31.974Z,42.30
2019-02-16T10:50:51.964Z,42.18
2019-02-16T10:58:19.534Z,42.73
2019-02-16T11:01:31.395Z,43.46
2019-02-16T11:04:39.275Z,42.95
2019-02-16T11:08:20.295Z,43.27
2019-02-16T11:11:07.222Z,43.45
2019-02-16T11:14:00.626Z,44.52
2019-02-16T11:17:12.920Z,44.35
2019-02-16T11:19:59.114Z,44.72
2019-02-16T11:23:01.251Z,44.68
2019-02-16T11:26:07.934Z,44.61
2019-02-16T11:28:52.240Z,43.75
2019-02-16T11:31:29.967Z,43.95
2019-02-16T11:34:08.598Z,43.32
2019-02-16T11:43:22.757Z,42.37
2019-02-16T11:46:54.441Z,41.62
2019-02-16T11:49:41.426Z,42.28
2019-02-16T11:52:31.001Z,42.15
2019-02-16T11:55:30.772Z,42.20
2019-02-16T11:59:08.216Z,42.54
2019-02-16T12:02:06.609Z,41.87
2019-02-16T12:05:01.870Z,41.72
2019-02-16T12:07:48.771Z,42.02
2019-02-16T12:10:35.813Z,41.58
2019-02-16T12:13:16.992Z,42.15
2019-02-16T12:15:54.329Z,42.64
2019-02-16T12:18:49.051Z,43.05
2019-02-16T12:21:38.471Z,43.73
2019-02-16T12:24:24.040Z,43.69
2019-02-16T12:27:07.685Z,42.67
2019-02-16T12:30:06.471Z,43.11
2019-02-16T12:32:58.981Z,42.34
2019-02-16T12:35:34.970Z,43.11
2019-02-16T12:38:17.428Z,42.68
2019-02-16T12:41:07.460Z,42.90
2019-02-16T12:43:56.766Z,43.30
2019-02-16T12:46:55.605Z,42.14
2019-02-16T12:49:44.461Z,42.88
2019-02-16T12:52:28.362Z,44.18
2019-02-16T12:55:15.022Z,43.46
2019-02-16T12:57:56.081Z,43.33
2019-02-16T13:00:45.909Z,43.62
2019-02-16T13:03:20.241Z,43.47
2019-02-16T13:06:07.191Z,43.47
2019-02-16T13:08:48.867Z,43.22
2019-02-16T13:11:38.584Z,43.52
2019-02-16T13:14:24.820Z,42.96
2019-02-16T13:17:14.597Z,43.11
2019-02-16T13:20:09.108Z,43.50
2019-02-16T13:22:56.080Z,43.11
2019-02-16T13:25:35.815Z,43.46
2019-02-16T13:28:21.146Z,43.70
2019-02-16T13:31:11.081Z,42.79
2019-02-16T13:34:13.126Z,43.11
2019-02-16T13:36:52.176Z,42.96
2019-02-16T13:39:47.916Z,43.46
2019-02-16T13:42:20.766Z,43.80
2019-02-16T13:44:59.441Z,43.66
2019-02-16T13:47:30.686Z,43.95
2019-02-16T13:50:09.600Z,44.10
2019-02-16T13:52:54.855Z,44.44
2019-02-16T13:55:33.461Z,44.60
2019-02-16T13:58:15.581Z,44.50
2019-02-16T14:00:51.396Z,42.78
2019-02-16T14:03:38.316Z,42.67
2019-02-16T14:06:28.050Z,42.53
2019-02-16T14:09:20.776Z,42.49
2019-02-16T14:12:04.053Z,42.15
2019-02-16T14:14:42.953Z,42.37
2019-02-16T14:17:28.335Z,42.09
2019-02-16T14:19:55.754Z,42.11
2019-02-16T14:22:23.232Z,42.38
2019-02-16T14:24:54.015Z,41.60
2019-02-16T14:27:21.920Z,42.81
2019-02-16T14:29:49.305Z,42.56
2019-02-16T14:32:16.911Z,42.04
2019-02-16T14:34:47.332Z,41.06
2019-02-16T14:37:39.932Z,41.85
2019-02-16T14:40:07.650Z,42.15
2019-02-16T14:42:35.105Z,42.13
2019-02-16T14:45:02.735Z,42.21
2019-02-16T14:47:30.221Z,42.42
2019-02-16T14:49:57.585Z,42.19
2019-02-16T14:52:25.045Z,42.12
2019-02-16T14:54:52.450Z,42.50
2019-02-16T14:57:19.908Z,42.62
2019-02-16T14:59:50.400Z,42.78
2019-02-16T15:02:17.908Z,43.41
2019-02-16T15:04:45.311Z,43.65
2019-02-16T15:07:12.890Z,43.33
2019-02-16T15:09:40.275Z,43.11
2019-02-16T15:12:07.691Z,43.39
2019-02-16T15:14:35.070Z,43.29
2019-02-16T15:17:02.550Z,44.03
2019-02-16T15:19:34.815Z,44.26
2019-02-16T15:22:05.320Z,43.89
2019-02-16T15:24:35.191Z,44.39
2019-02-16T15:27:02.690Z,44.43
2019-02-16T15:29:30.105Z,44.06
2019-02-16T15:32:02.674Z,44.68
2019-02-16T15:34:46.683Z,44.95
2019-02-16T15:38:20.483Z,45.01
2019-02-16T15:40:58.913Z,45.32
2019-02-16T15:43:34.862Z,45.34
2019-02-16T15:46:08.191Z,45.64
2019-02-16T15:48:40.348Z,45.62
2019-02-16T15:51:08.228Z,46.09
2019-02-16T15:53:38.925Z,46.33
2019-02-16T15:56:10.400Z,46.33
2019-02-16T15:58:43.424Z,45.74
2019-02-16T16:01:16.096Z,45.96
2019-02-16T16:03:53.036Z,46.31
2019-02-16T16:06:29.033Z,46.29
2019-02-16T16:09:27.009Z,46.62
2019-02-16T16:12:04.359Z,46.18
2019-02-16T16:14:58.619Z,46.92
2019-02-16T16:18:05.145Z,46.74
2019-02-16T16:20:40.745Z,46.99
2019-02-16T16:23:34.261Z,47.50
2019-02-16T16:26:33.120Z,47.89
2019-02-16T16:29:26.809Z,48.97
2019-02-16T16:32:17.705Z,48.82
2019-02-16T16:35:17.213Z,49.39
2019-02-16T16:38:09.855Z,50.02
2019-02-16T16:40:58.444Z,49.13
2019-02-16T16:43:51.819Z,49.48
2019-02-16T16:46:35.009Z,50.14
2019-02-16T16:49:31.573Z,50.30
2019-02-16T16:52:24.720Z,50.70
2019-02-16T16:55:00.680Z,51.08
2019-02-16T16:57:50.824Z,52.73
2019-02-16T17:00:39.743Z,54.55
2019-02-16T17:03:39.650Z,55.04
2019-02-16T17:06:36.273Z,54.66
2019-02-16T17:09:31.221Z,54.58
2019-02-16T17:12:34.443Z,55.56
2019-02-16T17:15:12.245Z,56.64
2019-02-16T17:17:50.532Z,56.85
2019-02-16T17:20:27.695Z,56.58
2019-02-16T17:23:13.255Z,56.93
2019-02-16T17:26:03.134Z,57.10
2019-02-16T17:28:50.175Z,58.36
2019-02-16T17:31:37.250Z,59.30
2019-02-16T17:34:36.144Z,59.83
2019-02-16T17:37:13.560Z,59.68
2019-02-16T17:39:59.040Z,61.04
2019-02-16T17:42:43.271Z,60.02
2019-02-16T17:45:36.710Z,61.25
2019-02-16T17:48:29.931Z,62.45
2019-02-16T17:51:19.810Z,63.62
2019-02-16T17:54:19.145Z,64.33
2019-02-16T17:57:06.491Z,64.67
2019-02-16T17:59:56.240Z,64.93
2019-02-16T18:02:49.276Z,64.51
2019-02-16T18:05:28.851Z,64.86
2019-02-16T18:08:15.941Z,65.47
2019-02-16T18:11:06.586Z,65.25
2019-02-16T18:13:47.977Z,65.40
2019-02-16T18:16:46.955Z,65.49
2019-02-16T18:19:20.975Z,65.44
2019-02-16T18:22:03.320Z,65.59
2019-02-16T18:24:53.693Z,66.22
2019-02-16T18:27:44.910Z,67.09
2019-02-16T18:30:38.191Z,67.20
2019-02-16T18:33:30.560Z,67.24
2019-02-16T18:36:05.295Z,67.31
2019-02-16T18:38:45.618Z,67.77
2019-02-16T18:41:32.895Z,68.18
2019-02-16T18:44:23.378Z,68.74
2019-02-16T18:47:09.305Z,68.19
2019-02-16T18:49:59.205Z,68.57
2019-02-16T18:53:04.165Z,68.62
2019-02-16T18:55:57.165Z,68.20
2019-02-16T18:58:42.812Z,68.50
2019-02-16T19:01:32.668Z,68.54
2019-02-16T19:04:15.402Z,68.95
2019-02-16T19:06:52.006Z,69.20
2019-02-16T19:09:37.577Z,69.26
2019-02-16T19:12:27.934Z,69.17
2019-02-16T19:15:33.463Z,69.41
2019-02-16T19:18:23.296Z,69.52
2019-02-16T19:21:23.986Z,69.81
2019-02-16T19:23:57.942Z,69.83
2019-02-16T19:26:51.131Z,69.93
2019-02-16T19:29:40.063Z,70.23
2019-02-16T19:32:39.472Z,70.18
2019-02-16T19:35:34.290Z,70.29
2019-02-16T19:38:10.849Z,70.76
2019-02-16T19:41:10.510Z,71.17
2019-02-16T19:43:50.063Z,71.55
2019-02-16T19:46:46.997Z,71.05
2019-02-16T19:50:10.193Z,70.86
2019-02-16T19:53:18.401Z,71.97
2019-02-16T19:55:50.081Z,72.09
2019-02-16T19:58:49.679Z,72.05
2019-02-16T20:01:40.630Z,72.13
2019-02-16T20:04:41.814Z,71.99
2019-02-16T20:07:47.451Z,72.20
2019-02-16T20:10:42.820Z,72.42
2019-02-16T20:13:36.670Z,72.14
2019-02-16T20:16:19.386Z,72.02
2019-02-16T20:19:51.719Z,72.36
2019-02-16T20:22:50.254Z,72.31
2019-02-16T20:25:37.469Z,72.85
2019-02-16T20:28:44.611Z,72.95
2019-02-16T20:31:36.307Z,72.63
2019-02-16T20:34:21.923Z,72.74
2019-02-16T20:37:43.085Z,72.22
2019-02-16T20:40:31.027Z,72.12
2019-02-16T20:43:27.020Z,72.44
2019-02-16T20:46:16.136Z,72.63
2019-02-16T20:48:59.092Z,73.21
2019-02-16T20:51:53.700Z,73.43
2019-02-16T20:54:49.830Z,73.41
2019-02-16T20:57:47.506Z,73.95
2019-02-16T21:00:48.624Z,74.18
2019-02-16T21:03:27.100Z,75.50
2019-02-16T21:06:32.290Z,75.89
2019-02-16T21:09:25.134Z,75.29
2019-02-16T21:12:15.176Z,74.22
2019-02-16T21:15:20.890Z,73.94
2019-02-16T21:18:18.075Z,74.73
2019-02-16T21:21:00.434Z,75.44
2019-02-16T21:23:50.436Z,74.69
2019-02-16T21:26:41.735Z,74.78
2019-02-16T21:29:28.820Z,74.61
2019-02-16T21:32:24.925Z,74.35
2019-02-16T21:35:17.190Z,74.46
2019-02-16T21:37:54.115Z,75.08
2019-02-16T21:40:34.651Z,74.75
2019-02-16T21:43:33.686Z,74.69
2019-02-16T21:46:23.627Z,75.53
2019-02-16T21:49:03.511Z,75.88
2019-02-16T21:51:47.816Z,75.97
2019-02-16T21:54:46.915Z,75.74
2019-02-16T21:57:35.496Z,76.21
2019-02-16T22:00:22.436Z,76.26
2019-02-16T22:03:14.980Z,76.14
2019-02-16T22:06:01.928Z,76.45
2019-02-16T22:08:48.870Z,77.03
2019-02-16T22:12:11.964Z,77.40
2019-02-16T22:14:45.952Z,77.32
2019-02-16T22:17:23.639Z,77.71
2019-02-16T22:20:10.526Z,78.01
2019-02-16T22:22:48.679Z,78.37
2019-02-16T22:25:26.935Z,78.57
2019-02-16T22:28:03.597Z,78.67
2019-02-16T22:31:02.961Z,78.41
2019-02-16T22:33:43.902Z,78.67
2019-02-16T22:36:31.982Z,78.49
2019-02-16T22:39:14.137Z,78.65
2019-02-16T22:42:36.405Z,78.52
2019-02-16T22:45:15.741Z,79.05
2019-02-16T22:47:43.178Z,78.44
2019-02-16T22:50:10.741Z,78.50
2019-02-16T22:52:38.233Z,78.37
2019-02-16T22:55:05.898Z,78.73
2019-02-16T22:57:33.303Z,79.25
2019-02-16T23:00:00.763Z,79.45
2019-02-16T23:02:28.152Z,79.38
2019-02-16T23:04:55.774Z,79.31
2019-02-16T23:07:24.872Z,79.29
2019-02-16T23:09:52.263Z,79.24
2019-02-16T23:12:19.683Z,78.99
2019-02-16T23:14:47.123Z,78.63
2019-02-16T23:17:14.552Z,78.34
2019-02-16T23:19:42.060Z,78.41
2019-02-16T23:22:09.454Z,78.98
2019-02-16T23:24:36.919Z,78.88
2019-02-16T23:27:04.498Z,78.65
2019-02-16T23:29:31.858Z,79.29
2019-02-16T23:32:01.098Z,78.93
2019-02-16T23:34:28.486Z,78.82
2019-02-16T23:36:55.923Z,78.83
2019-02-16T23:39:23.288Z,78.79
2019-02-16T23:42:32.403Z,78.49
2019-02-16T23:45:35.086Z,78.65
2019-02-16T23:47:55.448Z,78.95
2019-02-16T23:50:22.888Z,78.96
2019-02-16T23:52:51.163Z,79.62
2019-02-16T23:55:18.618Z,79.84
2019-02-16T23:57:45.998Z,79.96
